createdAt,value
2023-04-11T00:00:56.066Z,16.57
2023-04-11T00:03:23.185Z,16.59
2023-04-11T00:05:50.562Z,16.74
2023-04-11T00:08:17.534Z,16.61
2023-04-11T00:10:45.659Z,16.67
2023-04-11T00:13:12.731Z,16.66
2023-04-11T00:15:39.597Z,16.56
2023-04-11T00:18:07.270Z,16.43
2023-04-11T00:20:34.289Z,16.57
2023-04-11T00:23:01.221Z,16.11
2023-04-11T00:25:30.205Z,16.43
2023-04-11T00:27:57.346Z,16.31
2023-04-11T00:30:24.112Z,16.51
2023-04-11T00:32:51.155Z,16.53
2023-04-11T00:35:18.241Z,16.56
2023-04-11T00:37:45.697Z,16.60
2023-04-11T00:40:14.385Z,16.63
2023-04-11T00:42:41.370Z,16.69
2023-04-11T00:45:08.743Z,16.57
2023-04-11T00:47:35.627Z,16.78
2023-04-11T00:50:02.523Z,16.83
2023-04-11T00:52:29.263Z,16.89
2023-04-11T00:54:56.116Z,16.86
2023-04-11T00:57:26.224Z,16.93
2023-04-11T00:59:53.004Z,17.01
2023-04-11T01:02:19.816Z,16.54
2023-04-11T01:04:46.881Z,16.91
2023-04-11T01:07:13.708Z,16.22
2023-04-11T01:09:40.517Z,17.01
2023-04-11T01:12:07.456Z,16.76
2023-04-11T01:14:34.271Z,16.86
2023-04-11T01:17:02.425Z,16.76
2023-04-11T01:19:29.537Z,16.47
2023-04-11T01:21:56.648Z,16.24
2023-04-11T01:24:23.529Z,16.52
2023-04-11T01:26:50.381Z,16.25
2023-04-11T01:29:17.119Z,16.42
2023-04-11T01:31:44.146Z,16.34
2023-04-11T01:34:13.578Z,16.36
2023-04-11T01:36:41.810Z,16.32
2023-04-11T01:39:08.629Z,16.26
2023-04-11T01:41:35.986Z,16.01
2023-04-11T01:44:04.205Z,16.30
2023-04-11T01:46:31.412Z,16.21
2023-04-11T01:48:59.134Z,16.37
2023-04-11T01:51:26.203Z,15.88
2023-04-11T01:53:52.919Z,16.36
2023-04-11T01:56:19.800Z,16.24
2023-04-11T01:58:46.598Z,15.82
2023-04-11T02:01:13.532Z,15.98
2023-04-11T02:03:40.833Z,16.13
2023-04-11T02:06:07.840Z,16.32
2023-04-11T02:08:34.689Z,16.25
2023-04-11T02:11:01.641Z,16.30
2023-04-11T02:13:28.411Z,16.30
2023-04-11T02:15:55.127Z,16.18
2023-04-11T02:18:21.992Z,16.21
2023-04-11T02:20:50.266Z,16.35
2023-04-11T02:23:17.090Z,16.37
2023-04-11T02:25:44.013Z,16.17
2023-04-11T02:28:10.875Z,16.28
2023-04-11T02:30:37.797Z,16.41
2023-04-11T02:33:04.850Z,16.25
2023-04-11T02:35:31.697Z,16.44
2023-04-11T02:37:58.763Z,16.46
2023-04-11T02:40:26.111Z,16.49
2023-04-11T02:42:55.425Z,16.52
2023-04-11T02:45:22.375Z,16.48
2023-04-11T02:47:49.242Z,16.52
2023-04-11T02:50:16.204Z,16.59
2023-04-11T02:52:46.583Z,16.53
2023-04-11T02:55:14.530Z,16.56
2023-04-11T02:57:41.322Z,16.40
2023-04-11T03:00:09.682Z,16.54
2023-04-11T03:02:36.826Z,16.71
2023-04-11T03:05:04.344Z,16.47
2023-04-11T03:07:32.439Z,16.63
2023-04-11T03:10:02.341Z,16.49
2023-04-11T03:12:29.171Z,16.71
2023-04-11T03:14:55.939Z,16.61
2023-04-11T03:17:22.852Z,16.88
2023-04-11T03:19:49.717Z,15.92
2023-04-11T03:22:17.446Z,16.66
2023-04-11T03:24:44.369Z,16.88
2023-04-11T03:27:11.180Z,16.83
2023-04-11T03:29:38.372Z,16.93
2023-04-11T03:32:05.630Z,16.78
2023-04-11T03:34:32.686Z,16.68
2023-04-11T03:36:59.502Z,16.96
2023-04-11T03:39:26.694Z,16.76
2023-04-11T03:41:53.545Z,16.95
2023-04-11T03:44:20.342Z,16.69
2023-04-11T03:46:47.093Z,16.67
2023-04-11T03:49:13.949Z,16.62
2023-04-11T03:51:40.947Z,16.33
2023-04-11T03:54:07.728Z,16.47
2023-04-11T03:56:34.589Z,16.37
2023-04-11T03:59:01.781Z,16.31
2023-04-11T04:01:28.610Z,16.28
2023-04-11T04:03:56.132Z,16.27
2023-04-11T04:06:23.353Z,16.19
2023-04-11T04:08:50.099Z,16.19
2023-04-11T04:11:17.054Z,16.20
2023-04-11T04:13:43.846Z,16.04
2023-04-11T04:16:10.714Z,16.26
2023-04-11T04:18:37.651Z,16.00
2023-04-11T04:21:04.483Z,15.86
2023-04-11T04:23:32.603Z,16.11
2023-04-11T04:26:02.460Z,16.21
2023-04-11T04:28:29.616Z,16.15
2023-04-11T04:30:58.234Z,15.98
2023-04-11T04:33:26.408Z,16.13
2023-04-11T04:35:58.228Z,16.21
2023-04-11T04:38:26.373Z,16.23
2023-04-11T04:40:54.981Z,16.28
2023-04-11T04:43:23.161Z,16.30
2023-04-11T04:45:50.274Z,16.33
2023-04-11T04:48:17.561Z,16.35
2023-04-11T04:50:45.843Z,16.43
2023-04-11T04:53:13.205Z,16.41
2023-04-11T04:55:39.925Z,16.35
2023-04-11T04:58:06.660Z,16.30
2023-04-11T05:00:33.861Z,16.26
2023-04-11T05:03:00.835Z,16.22
2023-04-11T05:05:27.725Z,16.16
2023-04-11T05:07:54.548Z,16.13
2023-04-11T05:10:21.437Z,15.63
2023-04-11T05:12:48.381Z,16.03
2023-04-11T05:15:15.518Z,15.97
2023-04-11T05:17:43.005Z,15.72
2023-04-11T05:20:10.452Z,15.75
2023-04-11T05:22:38.299Z,15.62
2023-04-11T05:25:05.985Z,14.95
2023-04-11T05:27:32.752Z,15.37
2023-04-11T05:30:01.244Z,15.10
2023-04-11T05:32:28.018Z,15.13
2023-04-11T05:34:58.684Z,15.20
2023-04-11T05:37:26.322Z,15.17
2023-04-11T05:39:53.221Z,14.44
2023-04-11T05:42:20.079Z,15.27
2023-04-11T05:44:46.917Z,15.04
2023-04-11T05:47:13.721Z,15.09
2023-04-11T05:49:40.665Z,15.18
2023-04-11T05:52:07.608Z,15.19
2023-04-11T05:54:35.556Z,15.02
2023-04-11T05:57:02.884Z,15.08
2023-04-11T05:59:33.307Z,15.01
2023-04-11T06:02:00.242Z,15.17
2023-04-11T06:04:27.257Z,15.21
2023-04-11T06:06:55.798Z,15.26
2023-04-11T06:09:22.549Z,15.03
2023-04-11T06:11:49.270Z,15.34
2023-04-11T06:14:16.267Z,15.44
2023-04-11T06:16:43.022Z,15.45
2023-04-11T06:19:09.928Z,15.45
2023-04-11T06:21:36.786Z,15.50
2023-04-11T06:24:10.299Z,15.46
2023-04-11T06:26:37.317Z,15.53
2023-04-11T06:29:04.561Z,15.40
2023-04-11T06:31:31.389Z,15.47
2023-04-11T06:33:58.841Z,15.65
2023-04-11T06:36:26.158Z,15.64
2023-04-11T06:38:53.075Z,15.66
2023-04-11T06:41:19.961Z,15.66
2023-04-11T06:43:46.748Z,15.62
2023-04-11T06:46:13.622Z,15.59
2023-04-11T06:48:40.544Z,15.62
2023-04-11T06:51:09.222Z,15.49
2023-04-11T06:53:36.123Z,15.54
2023-04-11T06:56:11.480Z,15.53
2023-04-11T06:58:38.217Z,15.52
2023-04-11T07:01:05.204Z,15.52
2023-04-11T07:03:32.731Z,15.29
2023-04-11T07:05:59.694Z,15.52
2023-04-11T07:08:26.447Z,15.50
2023-04-11T07:10:53.269Z,15.50
2023-04-11T07:13:21.470Z,15.51
2023-04-11T07:15:48.335Z,15.51
2023-04-11T07:18:15.308Z,15.63
2023-04-11T07:20:42.125Z,15.69
2023-04-11T07:23:08.969Z,15.68
2023-04-11T07:25:35.821Z,15.77
2023-04-11T07:28:08.289Z,15.85
2023-04-11T07:30:38.406Z,15.90
2023-04-11T07:33:05.503Z,16.05
2023-04-11T07:35:34.828Z,16.08
2023-04-11T07:38:01.948Z,16.06
2023-04-11T07:40:29.098Z,16.29
2023-04-11T07:42:55.828Z,16.09
2023-04-11T07:45:22.849Z,16.40
2023-04-11T07:47:49.681Z,16.31
2023-04-11T07:50:16.426Z,16.55
2023-04-11T07:52:43.488Z,16.64
2023-04-11T07:55:13.079Z,16.72
2023-04-11T07:57:39.858Z,16.86
2023-04-11T08:00:10.218Z,16.96
2023-04-11T08:02:38.369Z,17.10
2023-04-11T08:05:05.618Z,17.11
2023-04-11T08:07:32.684Z,17.31
2023-04-11T08:09:59.666Z,17.28
2023-04-11T08:12:26.430Z,17.57
2023-04-11T08:14:53.412Z,17.64
2023-04-11T08:17:27.595Z,17.63
2023-04-11T08:19:58.153Z,17.52
2023-04-11T08:22:26.078Z,17.05
2023-04-11T08:24:52.919Z,17.69
2023-04-11T08:27:20.142Z,17.71
2023-04-11T08:29:46.923Z,17.35
2023-04-11T08:32:13.648Z,18.06
2023-04-11T08:34:40.608Z,18.45
2023-04-11T08:37:07.394Z,18.73
2023-04-11T08:39:34.255Z,19.03
2023-04-11T08:42:01.356Z,19.40
2023-04-11T08:44:28.077Z,19.64
2023-04-11T08:46:54.836Z,19.93
2023-04-11T08:49:24.748Z,20.01
2023-04-11T08:51:53.425Z,20.03
2023-04-11T08:54:20.165Z,20.05
2023-04-11T08:56:47.764Z,20.03
2023-04-11T08:59:14.484Z,20.16
2023-04-11T09:01:41.435Z,20.23
2023-04-11T09:04:08.848Z,20.04
2023-04-11T09:06:35.611Z,20.62
2023-04-11T09:09:08.225Z,20.62
2023-04-11T09:11:54.201Z,20.52
2023-04-11T09:14:24.641Z,20.43
2023-04-11T09:17:06.978Z,20.26
2023-04-11T09:19:35.072Z,19.93
2023-04-11T09:22:05.496Z,20.01
2023-04-11T09:24:33.990Z,19.82
2023-04-11T09:27:15.970Z,19.78
2023-04-11T09:29:45.646Z,19.60
2023-04-11T09:32:34.684Z,19.64
2023-04-11T09:35:07.820Z,19.91
2023-04-11T09:37:58.405Z,20.46
2023-04-11T09:40:27.888Z,21.10
2023-04-11T09:42:57.871Z,21.78
2023-04-11T09:45:25.509Z,22.24
2023-04-11T09:47:53.908Z,22.51
2023-04-11T09:50:20.934Z,22.46
2023-04-11T09:52:47.743Z,22.27
2023-04-11T09:55:16.579Z,22.10
2023-04-11T09:57:50.556Z,21.79
2023-04-11T10:00:30.450Z,22.31
2023-04-11T10:02:57.434Z,22.69
2023-04-11T10:05:28.597Z,23.20
2023-04-11T10:08:33.041Z,23.55
2023-04-11T10:11:00.320Z,23.29
2023-04-11T10:13:43.145Z,23.20
2023-04-11T10:16:13.643Z,23.11
2023-04-11T10:19:04.778Z,23.28
2023-04-11T10:21:32.901Z,23.51
2023-04-11T10:24:16.274Z,23.71
2023-04-11T10:27:05.013Z,23.89
2023-04-11T10:29:34.946Z,23.89
2023-04-11T10:32:14.039Z,23.86
2023-04-11T10:34:42.199Z,24.19
2023-04-11T10:37:09.880Z,24.62
2023-04-11T10:39:52.125Z,24.89
2023-04-11T10:42:28.393Z,25.13
2023-04-11T10:45:13.690Z,25.50
2023-04-11T10:47:40.568Z,25.86
2023-04-11T10:50:35.361Z,26.13
2023-04-11T10:53:05.435Z,26.29
2023-04-11T10:55:48.674Z,26.08
2023-04-11T10:58:22.364Z,25.82
2023-04-11T11:00:52.633Z,26.14
2023-04-11T11:03:30.951Z,26.66
2023-04-11T11:05:59.302Z,27.15
2023-04-11T11:08:38.057Z,27.92
2023-04-11T11:11:08.691Z,28.23
2023-04-11T11:13:43.443Z,28.26
2023-04-11T11:16:16.765Z,28.17
2023-04-11T11:19:01.781Z,27.74
2023-04-11T11:21:30.518Z,27.23
2023-04-11T11:24:01.100Z,27.02
2023-04-11T11:26:43.701Z,26.89
2023-04-11T11:29:10.810Z,26.95
2023-04-11T11:31:42.094Z,26.53
2023-04-11T11:34:23.052Z,26.24
2023-04-11T11:36:50.744Z,25.82
2023-04-11T11:39:18.219Z,25.62
2023-04-11T11:41:46.030Z,25.56
2023-04-11T11:44:26.670Z,25.45
2023-04-11T11:47:27.342Z,25.24
2023-04-11T11:49:54.997Z,25.01
2023-04-11T11:52:41.119Z,24.53
2023-04-11T11:55:11.371Z,24.04
2023-04-11T11:57:38.693Z,23.50
2023-04-11T12:00:06.168Z,23.31
2023-04-11T12:02:34.612Z,23.23
2023-04-11T12:05:04.172Z,23.79
2023-04-11T12:07:34.883Z,24.29
2023-04-11T12:10:02.291Z,24.67
2023-04-11T12:12:38.731Z,25.33
2023-04-11T12:15:18.518Z,25.75
2023-04-11T12:17:50.204Z,26.08
2023-04-11T12:20:17.057Z,26.56
2023-04-11T12:22:43.816Z,26.27
2023-04-11T12:25:14.781Z,25.97
2023-04-11T12:27:42.596Z,25.46
2023-04-11T12:30:10.229Z,25.40
2023-04-11T12:32:37.297Z,25.58
2023-04-11T12:35:05.309Z,25.37
2023-04-11T12:37:32.726Z,24.97
2023-04-11T12:39:59.635Z,24.85
2023-04-11T12:42:27.367Z,24.86
2023-04-11T12:44:54.629Z,24.53
2023-04-11T12:47:21.605Z,24.46
2023-04-11T12:49:48.430Z,24.61
2023-04-11T12:52:15.209Z,25.32
2023-04-11T12:54:42.174Z,26.23
2023-04-11T12:57:08.901Z,26.52
2023-04-11T12:59:35.726Z,26.37
2023-04-11T13:02:03.251Z,26.80
2023-04-11T13:04:30.620Z,27.01
2023-04-11T13:07:01.402Z,28.06
2023-04-11T13:09:29.883Z,28.25
2023-04-11T13:11:57.876Z,27.92
2023-04-11T13:14:24.722Z,27.08
2023-04-11T13:16:51.994Z,26.41
2023-04-11T13:19:18.808Z,25.55
2023-04-11T13:21:45.707Z,25.16
2023-04-11T13:24:12.620Z,24.76
2023-04-11T13:26:39.745Z,24.35
2023-04-11T13:29:07.751Z,23.85
2023-04-11T13:31:34.633Z,23.70
2023-04-11T13:34:02.414Z,23.47
2023-04-11T13:36:29.321Z,22.68
2023-04-11T13:38:56.948Z,22.93
2023-04-11T13:41:27.071Z,22.84
2023-04-11T13:43:53.916Z,22.53
2023-04-11T13:46:21.956Z,22.67
2023-04-11T13:48:48.934Z,22.55
2023-04-11T13:51:16.056Z,22.31
2023-04-11T13:53:42.826Z,22.45
2023-04-11T13:56:10.801Z,22.30
2023-04-11T13:58:38.348Z,22.34
2023-04-11T14:01:05.370Z,21.78
2023-04-11T14:03:33.913Z,22.20
2023-04-11T14:06:01.281Z,21.82
2023-04-11T14:08:28.909Z,22.10
2023-04-11T14:10:56.001Z,21.92
2023-04-11T14:13:22.906Z,21.98
2023-04-11T14:16:01.391Z,21.93
2023-04-11T14:18:34.625Z,22.06
2023-04-11T14:21:01.940Z,22.04
2023-04-11T14:23:29.378Z,22.10
2023-04-11T14:25:56.305Z,22.13
2023-04-11T14:28:26.536Z,21.82
2023-04-11T14:30:53.952Z,21.93
2023-04-11T14:33:21.020Z,21.63
2023-04-11T14:35:47.823Z,21.67
2023-04-11T14:38:17.472Z,21.53
2023-04-11T14:43:11.404Z,21.48
2023-04-11T14:45:38.246Z,21.45
2023-04-11T14:48:05.744Z,21.43
2023-04-11T14:50:32.611Z,21.39
2023-04-11T14:52:59.368Z,21.26
2023-04-11T14:55:26.331Z,21.20
2023-04-11T14:57:54.194Z,21.13
2023-04-11T15:00:22.026Z,21.23
2023-04-11T15:02:51.367Z,21.18
2023-04-11T15:05:18.248Z,21.24
2023-04-11T15:07:49.015Z,21.23
2023-04-11T15:10:17.548Z,21.12
2023-04-11T15:12:44.373Z,21.16
2023-04-11T15:15:11.445Z,21.10
2023-04-11T15:17:48.929Z,21.06
2023-04-11T15:20:16.107Z,20.79
2023-04-11T15:22:44.498Z,20.78
2023-04-11T15:25:13.277Z,20.94
2023-04-11T15:27:40.595Z,20.88
2023-04-11T15:30:07.899Z,20.64
2023-04-11T15:32:34.927Z,20.43
2023-04-11T15:35:01.851Z,20.34
2023-04-11T15:37:28.870Z,20.52
2023-04-11T15:39:57.779Z,20.81
2023-04-11T15:42:25.147Z,20.71
2023-04-11T15:44:52.026Z,20.43
2023-04-11T15:47:18.813Z,20.54
2023-04-11T15:49:45.982Z,20.26
2023-04-11T15:52:12.822Z,20.52
2023-04-11T15:54:39.631Z,20.49
2023-04-11T15:57:06.408Z,20.35
2023-04-11T15:59:33.957Z,20.43
2023-04-11T16:02:00.869Z,20.36
2023-04-11T16:04:27.770Z,20.06
2023-04-11T16:06:54.798Z,20.35
2023-04-11T16:09:21.533Z,20.08
2023-04-11T16:11:48.295Z,19.95
2023-04-11T16:14:15.127Z,20.15
2023-04-11T16:16:44.455Z,20.13
2023-04-11T16:19:11.213Z,19.99
2023-04-11T16:21:39.058Z,20.04
2023-04-11T16:24:06.988Z,20.06
2023-04-11T16:26:33.787Z,20.11
2023-04-11T16:29:00.727Z,20.16
2023-04-11T16:31:27.688Z,20.18
2023-04-11T16:33:55.423Z,19.95
2023-04-11T16:36:22.596Z,20.10
2023-04-11T16:38:52.496Z,19.91
2023-04-11T16:41:19.398Z,20.12
2023-04-11T16:43:47.039Z,19.85
2023-04-11T16:46:14.495Z,19.98
2023-04-11T16:48:44.253Z,19.83
2023-04-11T16:51:11.502Z,19.32
2023-04-11T16:53:38.924Z,19.58
2023-04-11T16:56:06.084Z,19.77
2023-04-11T16:58:32.919Z,19.81
2023-04-11T17:01:00.168Z,19.60
2023-04-11T17:03:27.397Z,19.80
2023-04-11T17:05:54.378Z,19.77
2023-04-11T17:08:21.473Z,19.69
2023-04-11T17:10:48.263Z,19.54
2023-04-11T17:13:16.142Z,19.66
2023-04-11T17:15:42.973Z,19.36
2023-04-11T17:18:09.766Z,19.59
2023-04-11T17:20:36.857Z,19.44
2023-04-11T17:23:03.649Z,19.37
2023-04-11T17:25:30.382Z,19.35
2023-04-11T17:27:57.778Z,19.29
2023-04-11T17:30:24.647Z,19.24
2023-04-11T17:32:51.504Z,19.21
2023-04-11T17:35:18.567Z,19.13
2023-04-11T17:37:45.344Z,19.00
2023-04-11T17:40:15.404Z,18.93
2023-04-11T17:42:42.247Z,18.76
2023-04-11T17:45:18.093Z,18.91
2023-04-11T17:47:45.644Z,18.97
2023-04-11T17:50:13.111Z,18.63
2023-04-11T17:52:44.312Z,18.88
2023-04-11T17:55:13.257Z,18.78
2023-04-11T17:57:40.244Z,18.78
2023-04-11T18:00:18.391Z,18.91
2023-04-11T18:02:48.273Z,18.50
2023-04-11T18:05:25.012Z,18.61
2023-04-11T18:07:54.227Z,18.60
2023-04-11T18:10:22.206Z,18.50
2023-04-11T18:12:50.202Z,18.61
2023-04-11T18:15:16.958Z,18.72
2023-04-11T18:17:46.493Z,18.44
2023-04-11T18:20:14.237Z,18.69
2023-04-11T18:22:42.526Z,18.55
2023-04-11T18:25:09.542Z,18.37
2023-04-11T18:27:37.417Z,18.48
2023-04-11T18:30:05.748Z,18.21
2023-04-11T18:32:38.264Z,18.34
2023-04-11T18:35:11.874Z,18.35
2023-04-11T18:37:42.853Z,18.42
2023-04-11T18:40:14.274Z,18.30
2023-04-11T18:42:42.466Z,18.31
2023-04-11T18:45:11.890Z,18.12
2023-04-11T18:47:39.064Z,18.33
2023-04-11T18:50:07.077Z,18.29
2023-04-11T18:52:34.966Z,18.25
2023-04-11T18:55:02.059Z,18.23
2023-04-11T18:57:32.307Z,18.22
2023-04-11T19:00:10.277Z,18.21
2023-04-11T19:02:40.101Z,18.14
2023-04-11T19:05:13.982Z,18.21
2023-04-11T19:07:45.352Z,18.21
2023-04-11T19:10:12.228Z,17.96
2023-04-11T19:12:39.302Z,18.21
2023-04-11T19:15:07.892Z,18.04
2023-04-11T19:17:35.973Z,17.63
2023-04-11T19:20:06.940Z,18.15
2023-04-11T19:22:34.675Z,18.06
2023-04-11T19:25:01.501Z,17.95
2023-04-11T19:27:28.418Z,17.64
2023-04-11T19:29:55.183Z,18.03
2023-04-11T19:32:21.999Z,18.02
2023-04-11T19:34:50.802Z,17.99
2023-04-11T19:37:19.501Z,17.98
2023-04-11T19:39:46.373Z,17.87
2023-04-11T19:42:13.910Z,17.91
2023-04-11T19:44:42.123Z,17.85
2023-04-11T19:47:08.896Z,17.80
2023-04-11T19:49:36.003Z,17.75
2023-04-11T19:52:02.787Z,17.63
2023-04-11T19:54:30.873Z,17.48
2023-04-11T19:56:57.741Z,17.60
2023-04-11T19:59:24.479Z,17.29
2023-04-11T20:01:53.781Z,17.38
2023-04-11T20:04:20.710Z,17.48
2023-04-11T20:06:50.761Z,17.47
2023-04-11T20:09:17.593Z,17.40
2023-04-11T20:11:47.337Z,17.42
2023-04-11T20:14:13.974Z,17.36
2023-04-11T20:16:40.880Z,17.31
2023-04-11T20:19:08.614Z,17.06
2023-04-11T20:21:35.503Z,17.12
2023-04-11T20:24:02.448Z,17.20
2023-04-11T20:26:29.412Z,17.17
2023-04-11T20:28:58.352Z,16.97
2023-04-11T20:31:25.751Z,17.13
2023-04-11T20:33:52.853Z,17.10
2023-04-11T20:36:19.795Z,16.84
2023-04-11T20:38:46.722Z,17.04
2023-04-11T20:41:14.033Z,16.96
2023-04-11T20:43:42.502Z,17.00
2023-04-11T20:46:09.338Z,16.97
2023-04-11T20:48:37.929Z,16.81
2023-04-11T20:51:04.871Z,16.67
2023-04-11T20:53:31.682Z,16.81
2023-04-11T20:55:58.637Z,16.94
2023-04-11T20:58:25.693Z,16.93
2023-04-11T21:00:55.957Z,16.90
2023-04-11T21:03:23.189Z,16.88
2023-04-11T21:05:50.289Z,16.87
2023-04-11T21:08:17.100Z,16.86
2023-04-11T21:10:43.997Z,16.85
2023-04-11T21:13:10.767Z,16.66
2023-04-11T21:15:37.564Z,16.64
2023-04-11T21:18:06.839Z,16.74
2023-04-11T21:20:34.623Z,16.49
2023-04-11T21:23:02.781Z,16.88
2023-04-11T21:25:29.685Z,16.90
2023-04-11T21:27:56.443Z,16.92
2023-04-11T21:30:23.372Z,16.91
2023-04-11T21:32:50.354Z,16.91
2023-04-11T21:35:17.175Z,16.90
2023-04-11T21:37:44.442Z,16.71
2023-04-11T21:40:12.943Z,16.60
2023-04-11T21:42:39.897Z,16.87
2023-04-11T21:45:08.403Z,16.86
2023-04-11T21:47:35.399Z,16.86
2023-04-11T21:50:02.427Z,16.86
2023-04-11T21:52:29.176Z,16.80
2023-04-11T21:54:56.161Z,16.81
2023-04-11T21:57:22.911Z,16.77
2023-04-11T21:59:49.658Z,16.43
2023-04-11T22:02:16.592Z,16.65
2023-04-11T22:04:56.436Z,16.43
2023-04-11T22:07:32.411Z,16.68
2023-04-11T22:10:03.573Z,16.78
2023-04-11T22:12:30.490Z,16.71
2023-04-11T22:14:57.413Z,16.79
2023-04-11T22:17:24.244Z,16.71
2023-04-11T22:19:51.169Z,16.61
2023-04-11T22:22:18.821Z,16.77
2023-04-11T22:24:48.980Z,16.57
2023-04-11T22:27:18.413Z,16.53
2023-04-11T22:29:45.538Z,16.64
2023-04-11T22:32:12.412Z,16.78
2023-04-11T22:34:39.392Z,16.60
2023-04-11T22:37:06.142Z,16.65
2023-04-11T22:39:33.365Z,16.80
2023-04-11T22:42:00.522Z,16.46
2023-04-11T22:44:27.264Z,16.80
2023-04-11T22:47:01.370Z,16.74
2023-04-11T22:49:28.143Z,16.80
2023-04-11T22:51:59.446Z,16.78
2023-04-11T22:54:27.488Z,16.57
2023-04-11T22:56:56.850Z,16.56
2023-04-11T22:59:24.590Z,16.15
2023-04-11T23:01:53.003Z,16.30
2023-04-11T23:04:20.738Z,16.38
2023-04-11T23:06:50.115Z,16.33
2023-04-11T23:09:17.993Z,16.43
2023-04-11T23:11:45.527Z,16.18
2023-04-11T23:14:14.295Z,16.53
2023-04-11T23:16:42.079Z,16.53
2023-04-11T23:19:09.314Z,16.58
2023-04-11T23:21:37.351Z,16.46
2023-04-11T23:24:05.441Z,16.45
2023-04-11T23:26:32.292Z,16.59
2023-04-11T23:29:00.840Z,16.65
2023-04-11T23:31:27.751Z,16.41
2023-04-11T23:33:54.911Z,16.65
2023-04-11T23:36:21.930Z,16.29
2023-04-11T23:38:48.779Z,16.71
2023-04-11T23:41:15.657Z,16.46
2023-04-11T23:43:42.508Z,16.79
2023-04-11T23:46:09.465Z,16.83
2023-04-11T23:48:36.424Z,16.75
2023-04-11T23:51:03.840Z,16.87
2023-04-11T23:53:32.012Z,16.65
2023-04-11T23:55:58.757Z,16.86
2023-04-11T23:58:25.745Z,16.85
